createdAt,value
2017-06-01T00:01:14.356Z,16.10
2017-06-01T00:03:43.618Z,16.10
2017-06-01T00:06:12.768Z,16.10
2017-06-01T00:08:41.961Z,16.10
2017-06-01T00:11:11.295Z,16.10
2017-06-01T00:13:40.495Z,15.90
2017-06-01T00:16:09.723Z,15.70
2017-06-01T00:18:38.932Z,15.60
2017-06-01T00:21:08.175Z,15.60
2017-06-01T00:23:37.395Z,15.40
2017-06-01T00:26:06.692Z,15.40
2017-06-01T00:28:35.902Z,15.40
2017-06-01T00:31:05.097Z,15.60
2017-06-01T00:33:34.995Z,15.60
2017-06-01T00:36:04.261Z,15.50
2017-06-01T00:38:33.547Z,15.50
2017-06-01T00:41:02.859Z,15.40
2017-06-01T00:43:32.087Z,15.30
2017-06-01T00:46:01.296Z,15.50
2017-06-01T00:48:30.519Z,15.50
2017-06-01T00:50:59.732Z,15.50
2017-06-01T00:53:28.956Z,15.50
2017-06-01T00:55:58.158Z,15.30
2017-06-01T00:58:27.391Z,15.30
2017-06-01T01:00:56.584Z,15.30
2017-06-01T01:03:25.840Z,15.20
2017-06-01T01:05:55.051Z,15.10
2017-06-01T01:08:24.259Z,15.00
2017-06-01T01:10:53.515Z,15.00
2017-06-01T01:13:22.792Z,15.10
2017-06-01T01:15:51.988Z,15.20
2017-06-01T01:18:21.212Z,15.10
2017-06-01T01:20:50.451Z,14.90
2017-06-01T01:23:19.788Z,14.80
2017-06-01T01:25:49.000Z,14.80
2017-06-01T01:28:18.204Z,14.80
2017-06-01T01:30:47.087Z,14.80
2017-06-01T01:33:16.279Z,14.80
2017-06-01T01:35:44.798Z,14.70
2017-06-01T01:38:13.419Z,14.70
2017-06-01T01:40:41.941Z,14.70
2017-06-01T01:43:11.216Z,14.60
2017-06-01T01:45:40.091Z,14.60
2017-06-01T01:48:08.604Z,14.60
2017-06-01T01:50:37.139Z,14.60
2017-06-01T01:53:05.639Z,14.50
2017-06-01T01:55:34.172Z,14.40
2017-06-01T01:58:02.770Z,14.50
2017-06-01T02:00:32.331Z,14.50
2017-06-01T02:03:01.190Z,14.50
2017-06-01T02:05:30.051Z,14.30
2017-06-01T02:07:58.927Z,14.10
2017-06-01T02:10:27.446Z,14.00
2017-06-01T02:12:56.323Z,14.10
2017-06-01T02:15:25.544Z,14.10
2017-06-01T02:17:54.051Z,14.10
2017-06-01T02:20:22.932Z,14.10
2017-06-01T02:22:51.784Z,14.20
2017-06-01T02:25:21.008Z,14.10
2017-06-01T02:27:50.206Z,14.20
2017-06-01T02:30:19.052Z,14.30
2017-06-01T02:32:47.595Z,14.30
2017-06-01T02:35:16.840Z,14.20
2017-06-01T02:37:45.353Z,14.10
2017-06-01T02:40:14.562Z,14.10
2017-06-01T02:42:43.317Z,14.20
2017-06-01T02:45:12.519Z,14.10
2017-06-01T02:47:41.064Z,14.10
2017-06-01T02:50:10.298Z,13.90
2017-06-01T02:52:39.510Z,13.80
2017-06-01T02:55:08.804Z,13.80
2017-06-01T02:57:37.638Z,13.70
2017-06-01T03:00:06.526Z,13.80
2017-06-01T03:02:35.395Z,13.70
2017-06-01T03:05:04.251Z,13.80
2017-06-01T03:07:33.131Z,13.80
2017-06-01T03:10:01.764Z,13.80
2017-06-01T03:12:30.623Z,13.80
2017-06-01T03:14:59.842Z,13.70
2017-06-01T03:17:28.365Z,13.70
2017-06-01T03:19:57.251Z,13.80
2017-06-01T03:22:27.088Z,13.80
2017-06-01T03:24:55.959Z,13.80
2017-06-01T03:27:24.804Z,13.80
2017-06-01T03:29:53.403Z,13.80
2017-06-01T03:32:22.607Z,13.80
2017-06-01T03:34:51.482Z,13.70
2017-06-01T03:37:20.000Z,13.70
2017-06-01T03:39:48.871Z,13.80
2017-06-01T03:42:18.071Z,13.80
2017-06-01T03:44:47.277Z,13.80
2017-06-01T03:47:16.496Z,13.90
2017-06-01T03:49:45.699Z,13.90
2017-06-01T03:52:14.916Z,13.80
2017-06-01T03:54:44.124Z,13.80
2017-06-01T03:57:13.003Z,13.80
2017-06-01T03:59:42.208Z,13.90
2017-06-01T04:02:11.415Z,13.90
2017-06-01T04:04:40.290Z,13.80
2017-06-01T04:07:09.149Z,13.80
2017-06-01T04:09:38.131Z,13.80
2017-06-01T04:12:07.011Z,13.90
2017-06-01T04:14:35.856Z,13.90
2017-06-01T04:17:04.363Z,14.00
2017-06-01T04:19:33.343Z,14.10
2017-06-01T04:22:02.233Z,14.20
2017-06-01T04:24:31.069Z,14.10
2017-06-01T04:27:00.269Z,14.10
2017-06-01T04:29:29.711Z,14.10
2017-06-01T04:31:59.011Z,14.20
2017-06-01T04:34:28.225Z,14.20
2017-06-01T04:36:57.443Z,14.40
2017-06-01T04:39:26.663Z,14.40
2017-06-01T04:41:55.858Z,14.50
2017-06-01T04:44:25.078Z,14.50
2017-06-01T04:46:54.297Z,14.60
2017-06-01T04:49:23.166Z,14.70
2017-06-01T04:51:52.031Z,14.80
2017-06-01T04:54:21.240Z,15.00
2017-06-01T04:56:50.095Z,15.20
2017-06-01T04:59:19.304Z,15.20
2017-06-01T05:01:48.539Z,15.30
2017-06-01T05:04:17.859Z,15.50
2017-06-01T05:06:47.139Z,15.50
2017-06-01T05:09:16.373Z,15.70
2017-06-01T05:11:45.739Z,15.80
2017-06-01T05:14:14.948Z,15.70
2017-06-01T05:16:44.151Z,15.80
2017-06-01T05:19:13.375Z,16.00
2017-06-01T05:21:42.574Z,16.00
2017-06-01T05:24:11.787Z,16.20
2017-06-01T05:26:41.012Z,16.40
2017-06-01T05:29:10.243Z,16.40
2017-06-01T05:31:39.511Z,16.60
2017-06-01T05:34:08.706Z,16.70
2017-06-01T05:36:37.920Z,16.90
2017-06-01T05:39:07.165Z,17.00
2017-06-01T05:41:36.380Z,17.10
2017-06-01T05:44:06.291Z,17.10
2017-06-01T05:46:35.513Z,17.30
2017-06-01T05:49:04.769Z,17.40
2017-06-01T05:51:33.994Z,17.60
2017-06-01T05:54:03.211Z,17.90
2017-06-01T05:56:32.419Z,18.20
2017-06-01T05:59:01.632Z,18.50
2017-06-01T06:01:30.852Z,18.50
2017-06-01T06:04:00.061Z,18.60
2017-06-01T06:06:29.276Z,18.80
2017-06-01T06:08:58.493Z,18.80
2017-06-01T06:11:27.692Z,19.20
2017-06-01T06:13:56.982Z,19.60
2017-06-01T06:16:26.163Z,19.90
2017-06-01T06:18:55.359Z,20.00
2017-06-01T06:21:24.578Z,20.20
2017-06-01T06:23:53.823Z,20.20
2017-06-01T06:26:23.008Z,20.10
2017-06-01T06:28:52.235Z,20.10
2017-06-01T06:31:21.443Z,20.10
2017-06-01T06:33:51.459Z,20.00
2017-06-01T06:36:20.371Z,20.20
2017-06-01T06:38:49.567Z,20.30
2017-06-01T06:41:18.776Z,20.30
2017-06-01T06:43:47.997Z,20.20
2017-06-01T06:46:16.439Z,20.10
2017-06-01T06:48:44.891Z,20.20
2017-06-01T06:51:14.155Z,20.00
2017-06-01T06:53:43.466Z,19.90
2017-06-01T06:56:12.677Z,19.90
2017-06-01T06:58:42.073Z,20.00
2017-06-01T07:01:11.280Z,20.00
2017-06-01T07:03:41.209Z,19.90
2017-06-01T07:06:10.404Z,20.00
2017-06-01T07:08:39.625Z,20.00
2017-06-01T07:11:08.846Z,20.10
2017-06-01T07:13:38.071Z,20.20
2017-06-01T07:16:07.317Z,20.10
2017-06-01T07:18:36.515Z,20.20
2017-06-01T07:21:05.781Z,20.20
2017-06-01T07:23:34.975Z,20.30
2017-06-01T07:26:04.191Z,20.40
2017-06-01T07:28:33.451Z,20.50
2017-06-01T07:31:02.676Z,20.50
2017-06-01T07:33:32.052Z,20.60
2017-06-01T07:36:01.264Z,20.80
2017-06-01T07:38:31.164Z,20.90
2017-06-01T07:41:00.362Z,21.10
2017-06-01T07:43:29.586Z,21.50
2017-06-01T07:45:58.782Z,21.80
2017-06-01T07:48:27.970Z,22.10
2017-06-01T07:50:57.196Z,22.30
2017-06-01T07:53:26.400Z,22.50
2017-06-01T07:55:55.619Z,22.50
2017-06-01T07:58:24.819Z,22.40
2017-06-01T08:00:54.041Z,22.10
2017-06-01T08:03:23.260Z,22.00
2017-06-01T08:05:52.452Z,22.20
2017-06-01T08:08:21.680Z,22.30
2017-06-01T08:10:50.901Z,22.30
2017-06-01T08:13:20.112Z,22.40
2017-06-01T08:15:48.553Z,22.40
2017-06-01T08:18:16.993Z,22.50
2017-06-01T08:20:46.273Z,22.40
2017-06-01T08:23:15.483Z,22.50
2017-06-01T08:25:44.701Z,22.60
2017-06-01T08:28:13.900Z,22.60
2017-06-01T08:30:43.112Z,22.70
2017-06-01T08:33:12.327Z,22.70
2017-06-01T08:35:41.603Z,22.60
2017-06-01T08:38:10.832Z,22.30
2017-06-01T08:40:40.004Z,22.10
2017-06-01T08:43:09.213Z,21.70
2017-06-01T08:45:37.655Z,21.70
2017-06-01T08:48:06.106Z,21.60
2017-06-01T08:50:35.303Z,22.00
2017-06-01T08:53:04.520Z,22.30
2017-06-01T08:55:33.732Z,22.30
2017-06-01T08:58:02.175Z,22.20
2017-06-01T09:00:31.390Z,22.30
2017-06-01T09:03:00.599Z,22.40
2017-06-01T09:05:29.023Z,22.30
2017-06-01T09:07:58.239Z,22.50
2017-06-01T09:10:26.688Z,22.50
2017-06-01T09:12:55.952Z,22.70
2017-06-01T09:15:25.164Z,22.90
2017-06-01T09:17:53.635Z,24.30
2017-06-01T09:20:22.848Z,22.90
2017-06-01T09:22:52.068Z,22.50
2017-06-01T09:25:21.279Z,22.70
2017-06-01T09:27:49.763Z,22.60
2017-06-01T09:30:18.221Z,22.60
2017-06-01T09:32:47.452Z,22.90
2017-06-01T09:35:15.920Z,22.90
2017-06-01T09:37:45.142Z,22.70
2017-06-01T09:40:13.591Z,22.70
2017-06-01T09:42:42.772Z,22.80
2017-06-01T09:45:11.249Z,22.70
2017-06-01T09:47:40.553Z,23.10
2017-06-01T09:50:09.765Z,22.90
2017-06-01T09:52:38.983Z,22.90
2017-06-01T09:55:08.203Z,23.00
2017-06-01T09:57:37.411Z,23.00
2017-06-01T10:00:06.608Z,23.00
2017-06-01T10:02:35.823Z,23.10
2017-06-01T10:05:05.061Z,23.20
2017-06-01T10:07:34.272Z,23.50
2017-06-01T10:10:02.724Z,23.40
2017-06-01T10:12:31.919Z,23.90
2017-06-01T10:15:01.156Z,23.90
2017-06-01T10:17:30.354Z,23.90
2017-06-01T10:19:59.552Z,24.00
2017-06-01T10:22:28.773Z,23.90
2017-06-01T10:24:57.969Z,23.90
2017-06-01T10:27:27.180Z,24.10
2017-06-01T10:29:55.641Z,24.00
2017-06-01T10:32:24.864Z,24.10
2017-06-01T10:34:54.064Z,24.30
2017-06-01T10:37:23.285Z,24.10
2017-06-01T10:39:52.497Z,24.20
2017-06-01T10:42:21.791Z,24.60
2017-06-01T10:44:51.033Z,24.60
2017-06-01T10:47:20.239Z,24.20
2017-06-01T10:49:49.460Z,23.80
2017-06-01T10:52:18.676Z,23.70
2017-06-01T10:54:47.123Z,23.70
2017-06-01T10:57:16.330Z,24.30
2017-06-01T10:59:45.549Z,24.60
2017-06-01T11:02:14.748Z,24.90
2017-06-01T11:04:43.964Z,25.30
2017-06-01T11:07:13.195Z,25.40
2017-06-01T11:09:42.416Z,25.60
2017-06-01T11:12:11.619Z,25.70
2017-06-01T11:14:40.832Z,25.40
2017-06-01T11:17:10.028Z,25.00
2017-06-01T11:19:39.263Z,25.00
2017-06-01T11:22:08.468Z,24.90
2017-06-01T11:24:38.387Z,24.80
2017-06-01T11:27:06.847Z,24.80
2017-06-01T11:29:35.277Z,25.00
2017-06-01T11:32:04.499Z,25.20
2017-06-01T11:34:33.880Z,25.60
2017-06-01T11:37:03.787Z,25.50
2017-06-01T11:39:32.349Z,25.80
2017-06-01T11:42:00.795Z,25.40
2017-06-01T11:44:30.704Z,25.80
2017-06-01T11:47:00.007Z,25.70
2017-06-01T11:49:29.243Z,25.40
2017-06-01T11:51:58.448Z,25.10
2017-06-01T11:54:27.671Z,24.70
2017-06-01T11:56:56.872Z,24.70
2017-06-01T11:59:26.119Z,25.10
2017-06-01T12:01:55.315Z,25.70
2017-06-01T12:04:24.537Z,25.70
2017-06-01T12:06:53.755Z,26.00
2017-06-01T12:09:22.948Z,26.00
2017-06-01T12:11:52.180Z,26.10
2017-06-01T12:14:21.412Z,25.80
2017-06-01T12:16:50.663Z,25.20
2017-06-01T12:19:19.902Z,25.30
2017-06-01T12:21:49.107Z,25.90
2017-06-01T12:24:18.327Z,26.80
2017-06-01T12:26:47.631Z,27.30
2017-06-01T12:29:17.652Z,27.60
2017-06-01T12:31:46.848Z,27.80
2017-06-01T12:34:16.252Z,27.60
2017-06-01T12:36:45.524Z,27.10
2017-06-01T12:39:14.739Z,26.50
2017-06-01T12:41:43.944Z,26.40
2017-06-01T12:44:13.171Z,26.90
2017-06-01T12:46:42.383Z,26.90
2017-06-01T12:49:11.623Z,26.30
2017-06-01T12:51:40.917Z,26.40
2017-06-01T12:54:10.239Z,27.00
2017-06-01T12:56:39.436Z,27.50
2017-06-01T12:59:08.667Z,28.30
2017-06-01T13:01:37.879Z,29.10
2017-06-01T13:04:07.196Z,29.40
2017-06-01T13:06:36.402Z,28.10
2017-06-01T13:09:06.290Z,27.40
2017-06-01T13:11:35.728Z,26.90
2017-06-01T13:14:04.932Z,27.50
2017-06-01T13:16:34.147Z,27.90
2017-06-01T13:19:02.591Z,27.80
2017-06-01T13:21:31.823Z,28.00
2017-06-01T13:24:01.042Z,28.50
2017-06-01T13:26:30.341Z,28.80
2017-06-01T13:28:59.549Z,28.80
2017-06-01T13:31:28.807Z,28.40
2017-06-01T13:33:58.000Z,28.20
2017-06-01T13:36:27.204Z,28.30
2017-06-01T13:38:56.415Z,28.20
2017-06-01T13:41:25.616Z,28.10
2017-06-01T13:43:54.820Z,28.30
2017-06-01T13:46:24.049Z,28.40
2017-06-01T13:48:53.243Z,28.50
2017-06-01T13:51:22.439Z,29.20
2017-06-01T13:53:51.658Z,28.90
2017-06-01T13:56:20.885Z,28.70
2017-06-01T13:58:50.106Z,28.50
2017-06-01T14:01:19.296Z,28.80
2017-06-01T14:03:48.495Z,29.40
2017-06-01T14:06:17.711Z,28.80
2017-06-01T14:08:46.926Z,28.50
2017-06-01T14:11:16.242Z,29.00
2017-06-01T14:13:45.458Z,29.30
2017-06-01T14:16:14.676Z,29.70
2017-06-01T14:18:43.870Z,29.40
2017-06-01T14:21:13.075Z,29.00
2017-06-01T14:23:42.297Z,29.00
2017-06-01T14:26:12.199Z,29.40
2017-06-01T14:28:41.412Z,29.50
2017-06-01T14:31:09.844Z,29.40
2017-06-01T14:33:39.032Z,28.60
2017-06-01T14:36:07.487Z,28.60
2017-06-01T14:38:36.707Z,28.80
2017-06-01T14:41:05.156Z,28.80
2017-06-01T14:43:34.355Z,28.80
2017-06-01T14:46:03.571Z,27.40
2017-06-01T14:48:32.799Z,29.00
2017-06-01T14:51:02.024Z,29.10
2017-06-01T14:53:31.243Z,29.00
2017-06-01T14:55:59.675Z,29.00
2017-06-01T14:58:28.896Z,29.70
2017-06-01T15:00:58.131Z,30.10
2017-06-01T15:03:27.335Z,30.40
2017-06-01T15:05:56.527Z,30.60
2017-06-01T15:08:24.987Z,30.60
2017-06-01T15:10:53.493Z,29.60
2017-06-01T15:13:22.710Z,28.90
2017-06-01T15:15:51.936Z,28.40
2017-06-01T15:18:21.178Z,29.20
2017-06-01T15:20:50.422Z,29.40
2017-06-01T15:23:19.645Z,29.60
2017-06-01T15:25:48.859Z,30.10
2017-06-01T15:28:18.003Z,30.00
2017-06-01T15:30:47.240Z,29.80
2017-06-01T15:33:16.439Z,30.00
2017-06-01T15:35:45.768Z,29.30
2017-06-01T15:38:14.963Z,29.10
2017-06-01T15:40:44.212Z,29.80
2017-06-01T15:43:13.416Z,30.10
2017-06-01T15:45:42.860Z,30.10
2017-06-01T15:48:12.060Z,30.20
2017-06-01T15:50:41.287Z,29.30
2017-06-01T15:53:10.503Z,29.10
2017-06-01T15:55:39.716Z,28.70
2017-06-01T15:58:08.919Z,29.10
2017-06-01T16:00:38.142Z,29.10
2017-06-01T16:03:07.192Z,29.40
2017-06-01T16:05:36.383Z,29.30
2017-06-01T16:08:05.624Z,29.50
2017-06-01T16:10:34.836Z,29.10
2017-06-01T16:13:04.087Z,29.20
2017-06-01T16:15:33.325Z,29.20
2017-06-01T16:18:02.626Z,28.70
2017-06-01T16:20:31.084Z,28.60
2017-06-01T16:23:00.326Z,29.40
2017-06-01T16:25:29.547Z,30.00
2017-06-01T16:27:58.011Z,29.90
2017-06-01T16:30:26.473Z,30.10
2017-06-01T16:32:55.683Z,29.20
2017-06-01T16:35:24.882Z,29.00
2017-06-01T16:37:53.388Z,29.00
2017-06-01T16:40:21.844Z,29.30
2017-06-01T16:42:51.053Z,28.90
2017-06-01T16:45:19.515Z,28.80
2017-06-01T16:47:47.976Z,28.70
2017-06-01T16:50:17.198Z,29.20
2017-06-01T16:52:46.479Z,29.10
2017-06-01T16:55:15.676Z,28.70
2017-06-01T16:57:44.944Z,28.80
2017-06-01T17:00:14.156Z,28.90
2017-06-01T17:02:43.360Z,28.60
2017-06-01T17:05:12.589Z,28.70
2017-06-01T17:07:41.803Z,28.80
2017-06-01T17:10:10.259Z,28.80
2017-06-01T17:12:39.488Z,28.80
2017-06-01T17:15:08.722Z,28.80
2017-06-01T17:17:37.168Z,28.80
2017-06-01T17:20:05.603Z,28.40
2017-06-01T17:22:34.815Z,28.20
2017-06-01T17:25:04.031Z,28.10
2017-06-01T17:27:33.266Z,28.70
2017-06-01T17:30:01.782Z,28.30
2017-06-01T17:32:31.105Z,28.00
2017-06-01T17:35:00.395Z,27.40
2017-06-01T17:37:29.612Z,27.60
2017-06-01T17:39:58.803Z,27.40
2017-06-01T17:42:27.995Z,27.40
2017-06-01T17:44:57.252Z,27.20
2017-06-01T17:47:26.463Z,26.70
2017-06-01T17:49:55.679Z,26.40
2017-06-01T17:52:24.907Z,26.20
2017-06-01T17:54:54.115Z,26.10
2017-06-01T17:57:23.334Z,26.00
2017-06-01T17:59:52.645Z,25.90
2017-06-01T18:02:21.868Z,25.60
2017-06-01T18:04:51.116Z,25.30
2017-06-01T18:07:20.346Z,25.10
2017-06-01T18:09:49.558Z,25.00
2017-06-01T18:12:18.780Z,25.00
2017-06-01T18:14:47.981Z,24.80
2017-06-01T18:17:17.189Z,24.70
2017-06-01T18:19:46.407Z,24.50
2017-06-01T18:22:15.631Z,24.40
2017-06-01T18:24:44.108Z,24.30
2017-06-01T18:27:13.331Z,24.30
2017-06-01T18:29:42.543Z,24.30
2017-06-01T18:32:10.979Z,24.20
2017-06-01T18:34:40.197Z,24.20
2017-06-01T18:37:09.396Z,24.20
2017-06-01T18:39:38.588Z,24.00
2017-06-01T18:42:07.823Z,24.00
2017-06-01T18:44:37.023Z,23.90
2017-06-01T18:47:06.239Z,23.80
2017-06-01T18:49:35.478Z,23.70
2017-06-01T18:52:04.699Z,23.50
2017-06-01T18:54:33.943Z,23.40
2017-06-01T18:57:03.176Z,23.40
2017-06-01T18:59:32.416Z,23.30
2017-06-01T19:02:01.629Z,23.10
2017-06-01T19:04:30.828Z,23.10
2017-06-01T19:07:00.044Z,23.00
2017-06-01T19:09:29.269Z,23.00
2017-06-01T19:11:58.491Z,22.90
2017-06-01T19:14:27.697Z,22.80
2017-06-01T19:16:56.918Z,22.70
2017-06-01T19:19:26.126Z,22.70
2017-06-01T19:21:55.319Z,22.60
2017-06-01T19:24:24.563Z,22.50
2017-06-01T19:26:53.791Z,22.40
2017-06-01T19:29:23.080Z,22.30
2017-06-01T19:31:52.292Z,22.30
2017-06-01T19:34:21.501Z,22.30
2017-06-01T19:36:50.728Z,22.20
2017-06-01T19:39:19.967Z,22.20
2017-06-01T19:41:49.193Z,22.10
2017-06-01T19:44:18.477Z,22.10
2017-06-01T19:46:47.674Z,22.00
2017-06-01T19:49:16.977Z,21.90
2017-06-01T19:51:46.199Z,21.80
2017-06-01T19:54:15.429Z,21.70
2017-06-01T19:56:44.641Z,21.70
2017-06-01T19:59:13.863Z,21.70
2017-06-01T20:01:43.061Z,21.70
2017-06-01T20:04:12.296Z,21.60
2017-06-01T20:06:41.512Z,21.50
2017-06-01T20:09:10.702Z,21.40
2017-06-01T20:11:39.911Z,21.30
2017-06-01T20:14:09.134Z,21.20
2017-06-01T20:16:38.348Z,21.20
2017-06-01T20:19:07.578Z,21.10
2017-06-01T20:21:36.885Z,21.00
2017-06-01T20:24:06.111Z,20.90
2017-06-01T20:26:35.311Z,20.90
2017-06-01T20:29:04.609Z,20.80
2017-06-01T20:31:33.972Z,20.70
2017-06-01T20:34:03.269Z,20.80
2017-06-01T20:36:32.500Z,20.70
2017-06-01T20:39:01.704Z,20.70
2017-06-01T20:41:31.075Z,20.70
2017-06-01T20:44:00.291Z,20.60
2017-06-01T20:46:29.507Z,20.40
2017-06-01T20:48:58.753Z,20.40
2017-06-01T20:51:27.961Z,20.30
2017-06-01T20:53:57.181Z,20.30
2017-06-01T20:56:26.398Z,20.30
2017-06-01T20:58:55.615Z,20.30
2017-06-01T21:01:24.889Z,20.20
2017-06-01T21:03:54.087Z,20.20
2017-06-01T21:06:23.994Z,20.20
2017-06-01T21:08:53.415Z,20.20
2017-06-01T21:11:22.616Z,20.20
2017-06-01T21:13:51.911Z,20.10
2017-06-01T21:16:21.214Z,20.20
2017-06-01T21:18:50.471Z,20.20
2017-06-01T21:21:19.981Z,20.20
2017-06-01T21:23:49.278Z,20.30
2017-06-01T21:26:18.559Z,20.30
2017-06-01T21:28:47.751Z,20.30
2017-06-01T21:31:16.987Z,20.10
2017-06-01T21:33:46.891Z,20.10
2017-06-01T21:36:16.098Z,20.00
2017-06-01T21:38:45.323Z,20.00
2017-06-01T21:41:14.549Z,20.00
2017-06-01T21:43:43.759Z,20.00
2017-06-01T21:46:13.017Z,20.00
2017-06-01T21:48:42.226Z,20.10
2017-06-01T21:51:11.451Z,20.00
2017-06-01T21:53:40.650Z,20.00
2017-06-01T21:56:09.860Z,19.90
2017-06-01T21:58:39.080Z,19.90
2017-06-01T22:01:08.302Z,20.00
2017-06-01T22:03:37.631Z,20.00
2017-06-01T22:06:06.850Z,20.00
2017-06-01T22:08:36.075Z,20.00
2017-06-01T22:11:05.283Z,20.00
2017-06-01T22:13:34.511Z,19.90
2017-06-01T22:16:03.715Z,19.90
2017-06-01T22:18:32.915Z,19.90
2017-06-01T22:21:02.143Z,19.80
2017-06-01T22:23:31.409Z,19.90
2017-06-01T22:26:00.680Z,19.90
2017-06-01T22:28:29.895Z,19.80
2017-06-01T22:30:59.103Z,19.80
2017-06-01T22:33:28.304Z,19.80
2017-06-01T22:35:57.511Z,19.90
2017-06-01T22:38:26.807Z,19.90
2017-06-01T22:40:56.031Z,20.00
2017-06-01T22:43:25.237Z,20.00
2017-06-01T22:45:54.442Z,19.90
2017-06-01T22:48:23.657Z,19.70
2017-06-01T22:50:52.852Z,19.50
2017-06-01T22:53:22.069Z,19.40
2017-06-01T22:55:51.298Z,19.50
2017-06-01T22:58:20.600Z,19.70
2017-06-01T23:00:49.816Z,19.80
2017-06-01T23:03:19.061Z,19.80
2017-06-01T23:05:48.260Z,19.80
2017-06-01T23:08:17.488Z,19.80
2017-06-01T23:10:46.684Z,19.80
2017-06-01T23:13:15.900Z,19.70
2017-06-01T23:15:45.148Z,19.60
2017-06-01T23:18:14.364Z,19.40
2017-06-01T23:20:43.559Z,19.30
2017-06-01T23:23:12.767Z,19.30
2017-06-01T23:25:41.987Z,19.50
2017-06-01T23:28:11.196Z,19.70
2017-06-01T23:30:40.397Z,19.60
2017-06-01T23:33:09.604Z,19.70
2017-06-01T23:35:38.814Z,19.80
2017-06-01T23:38:08.025Z,19.80
2017-06-01T23:40:37.251Z,19.70
2017-06-01T23:43:06.463Z,19.70
2017-06-01T23:45:35.667Z,19.50
2017-06-01T23:48:04.878Z,19.40
2017-06-01T23:50:34.103Z,19.40
2017-06-01T23:53:03.298Z,19.50
2017-06-01T23:55:32.651Z,19.50
2017-06-01T23:58:02.541Z,19.60
